createdAt,value
2018-07-12T00:01:28.853Z,12.75
2018-07-12T00:03:55.612Z,12.82
2018-07-12T00:06:22.429Z,12.68
2018-07-12T00:08:49.198Z,12.63
2018-07-12T00:11:15.908Z,13.30
2018-07-12T00:13:42.682Z,12.33
2018-07-12T00:16:09.413Z,13.40
2018-07-12T00:18:36.160Z,13.03
2018-07-12T00:21:02.899Z,13.22
2018-07-12T00:23:29.633Z,13.40
2018-07-12T00:25:56.321Z,13.25
2018-07-12T00:28:23.011Z,12.45
2018-07-12T00:30:49.777Z,12.80
2018-07-12T00:33:16.483Z,13.68
2018-07-12T00:35:44.081Z,14.18
2018-07-12T00:38:10.852Z,14.70
2018-07-12T00:40:37.538Z,14.00
2018-07-12T00:43:04.306Z,13.90
2018-07-12T00:45:31.028Z,14.13
2018-07-12T00:47:57.889Z,15.00
2018-07-12T00:50:24.629Z,14.93
2018-07-12T00:52:51.476Z,15.93
2018-07-12T00:55:18.340Z,15.38
2018-07-12T00:57:45.026Z,15.10
2018-07-12T01:00:11.792Z,15.90
2018-07-12T01:02:38.713Z,16.05
2018-07-12T01:05:06.003Z,15.80
2018-07-12T01:07:32.717Z,15.60
2018-07-12T01:09:59.518Z,15.30
2018-07-12T01:12:26.220Z,15.93
2018-07-12T01:14:52.971Z,15.80
2018-07-12T01:17:19.702Z,17.27
2018-07-12T01:19:46.421Z,18.00
2018-07-12T01:22:13.205Z,16.10
2018-07-12T01:24:39.914Z,16.50
2018-07-12T01:27:06.663Z,17.17
2018-07-12T01:29:33.492Z,16.10
2018-07-12T01:32:00.288Z,16.12
2018-07-12T01:34:27.019Z,15.53
2018-07-12T01:36:53.928Z,17.10
2018-07-12T01:39:20.705Z,16.50
2018-07-12T01:41:47.414Z,17.77
2018-07-12T01:44:14.289Z,17.40
2018-07-12T01:46:40.992Z,17.60
2018-07-12T01:49:07.759Z,18.15
2018-07-12T01:51:34.480Z,17.32
2018-07-12T01:54:01.236Z,17.67
2018-07-12T01:56:27.969Z,16.90
2018-07-12T01:58:54.720Z,16.60
2018-07-12T02:01:21.455Z,17.30
2018-07-12T02:03:48.256Z,16.42
2018-07-12T02:06:15.092Z,16.17
2018-07-12T02:08:41.776Z,18.12
2018-07-12T02:11:08.532Z,16.82
2018-07-12T02:13:35.248Z,17.77
2018-07-12T02:16:02.034Z,17.12
2018-07-12T02:18:28.733Z,17.77
2018-07-12T02:20:55.492Z,19.67
2018-07-12T02:23:22.353Z,16.12
2018-07-12T02:25:49.092Z,14.20
2018-07-12T02:28:15.911Z,15.58
2018-07-12T02:30:42.790Z,16.87
2018-07-12T02:33:09.529Z,17.03
2018-07-12T02:35:36.246Z,17.02
2018-07-12T02:38:03.016Z,17.27
2018-07-12T02:40:29.723Z,22.30
2018-07-12T02:42:56.411Z,21.62
2018-07-12T02:45:23.060Z,20.10
2018-07-12T02:47:49.757Z,16.97
2018-07-12T02:50:16.477Z,17.10
2018-07-12T02:52:43.142Z,18.30
2018-07-12T02:55:09.852Z,17.90
2018-07-12T02:57:36.491Z,17.85
2018-07-12T03:00:03.186Z,17.57
2018-07-12T03:02:30.820Z,18.20
2018-07-12T03:04:58.626Z,17.30
2018-07-12T03:07:26.438Z,18.00
2018-07-12T03:09:58.960Z,18.07
2018-07-12T03:12:31.781Z,17.87
2018-07-12T03:15:00.841Z,17.17
2018-07-12T03:17:29.734Z,21.27
2018-07-12T03:19:58.440Z,18.10
2018-07-12T03:22:31.178Z,19.10
2018-07-12T03:24:59.746Z,16.60
2018-07-12T03:27:28.322Z,17.10
2018-07-12T03:29:59.922Z,17.75
2018-07-12T03:32:33.052Z,18.70
2018-07-12T03:35:00.942Z,19.25
2018-07-12T03:37:29.509Z,17.52
2018-07-12T03:39:57.766Z,18.30
2018-07-12T03:42:25.941Z,18.60
2018-07-12T03:44:54.282Z,20.20
2018-07-12T03:47:23.996Z,18.95
2018-07-12T03:49:53.560Z,19.05
2018-07-12T03:52:23.381Z,19.17
2018-07-12T03:54:52.283Z,21.07
2018-07-12T03:57:20.687Z,17.60
2018-07-12T03:59:48.965Z,17.62
2018-07-12T04:02:17.591Z,18.17
2018-07-12T04:04:45.798Z,18.60
2018-07-12T04:07:13.875Z,19.17
2018-07-12T04:09:40.556Z,18.27
2018-07-12T04:12:07.214Z,18.00
2018-07-12T04:14:34.092Z,17.90
2018-07-12T04:17:00.804Z,18.35
2018-07-12T04:19:27.521Z,18.10
2018-07-12T04:21:54.216Z,17.52
2018-07-12T04:24:20.868Z,16.85
2018-07-12T04:26:47.549Z,16.70
2018-07-12T04:29:14.744Z,17.73
2018-07-12T04:31:41.408Z,17.32
2018-07-12T04:34:08.112Z,18.63
2018-07-12T04:36:34.785Z,17.00
2018-07-12T04:39:01.487Z,16.90
2018-07-12T04:41:28.215Z,16.23
2018-07-12T04:43:54.917Z,16.17
2018-07-12T04:46:21.612Z,15.25
2018-07-12T04:48:48.311Z,15.55
2018-07-12T04:51:15.035Z,17.23
2018-07-12T04:53:41.686Z,15.80
2018-07-12T04:56:08.400Z,16.27
2018-07-12T04:58:35.240Z,16.97
2018-07-12T05:01:01.928Z,17.87
2018-07-12T05:03:28.667Z,16.97
2018-07-12T05:05:55.335Z,19.00
2018-07-12T05:08:22.003Z,16.00
2018-07-12T05:10:48.690Z,16.45
2018-07-12T05:13:15.389Z,18.30
2018-07-12T05:15:42.075Z,17.00
2018-07-12T05:18:09.168Z,16.70
2018-07-12T05:20:35.861Z,16.62
2018-07-12T05:23:03.018Z,15.30
2018-07-12T05:25:29.679Z,15.30
2018-07-12T05:27:56.336Z,15.17
2018-07-12T05:30:22.993Z,14.90
2018-07-12T05:32:49.695Z,15.93
2018-07-12T05:35:16.418Z,15.68
2018-07-12T05:37:44.193Z,15.23
2018-07-12T05:40:11.962Z,15.30
2018-07-12T05:42:39.904Z,15.40
2018-07-12T05:45:07.850Z,16.30
2018-07-12T05:47:35.809Z,16.55
2018-07-12T05:50:03.866Z,16.00
2018-07-12T05:52:31.900Z,17.10
2018-07-12T05:54:59.599Z,16.37
2018-07-12T05:57:27.676Z,17.98
2018-07-12T05:59:55.708Z,17.42
2018-07-12T06:02:24.100Z,17.55
2018-07-12T06:04:52.160Z,18.48
2018-07-12T06:07:25.733Z,17.23
2018-07-12T06:09:53.733Z,16.50
2018-07-12T06:12:21.652Z,16.73
2018-07-12T06:14:50.072Z,15.93
2018-07-12T06:17:18.097Z,16.05
2018-07-12T06:19:46.099Z,15.50
2018-07-12T06:22:14.126Z,15.60
2018-07-12T06:24:42.123Z,16.30
2018-07-12T06:27:10.165Z,16.80
2018-07-12T06:29:38.296Z,17.85
2018-07-12T06:32:06.749Z,17.32
2018-07-12T06:34:34.901Z,18.00
2018-07-12T06:37:03.224Z,17.10
2018-07-12T06:39:31.272Z,17.17
2018-07-12T06:41:59.330Z,15.37
2018-07-12T06:44:27.548Z,16.35
2018-07-12T06:46:55.594Z,15.80
2018-07-12T06:49:23.774Z,15.90
2018-07-12T06:51:51.861Z,15.90
2018-07-12T06:54:19.880Z,16.60
2018-07-12T06:56:47.694Z,16.15
2018-07-12T06:59:15.960Z,15.48
2018-07-12T07:01:44.021Z,15.13
2018-07-12T07:04:12.201Z,14.30
2018-07-12T07:06:40.601Z,13.07
2018-07-12T07:09:09.723Z,13.85
2018-07-12T07:11:38.051Z,13.60
2018-07-12T07:14:06.341Z,12.40
2018-07-12T07:16:34.589Z,12.90
2018-07-12T07:19:02.500Z,12.07
2018-07-12T07:21:30.585Z,12.23
2018-07-12T07:23:58.930Z,11.50
2018-07-12T07:26:27.241Z,11.90
2018-07-12T07:28:55.508Z,9.58
2018-07-12T07:31:23.589Z,8.70
2018-07-12T07:33:51.745Z,8.15
2018-07-12T07:36:19.998Z,7.47
2018-07-12T07:38:47.791Z,7.97
2018-07-12T07:41:16.079Z,8.20
2018-07-12T07:43:44.218Z,8.60
2018-07-12T07:46:12.308Z,6.20
2018-07-12T07:48:40.377Z,6.83
2018-07-12T07:51:08.898Z,5.60
2018-07-12T07:53:37.448Z,6.67
2018-07-12T07:56:05.634Z,6.70
2018-07-12T07:58:33.823Z,6.90
2018-07-12T08:01:01.892Z,6.83
2018-07-12T08:03:30.000Z,5.95
2018-07-12T08:05:58.132Z,7.03
2018-07-12T08:08:26.408Z,6.65
2018-07-12T08:10:54.776Z,6.60
2018-07-12T08:13:23.180Z,6.45
2018-07-12T08:15:51.382Z,6.90
2018-07-12T08:18:19.708Z,5.90
2018-07-12T08:20:47.910Z,7.20
2018-07-12T08:23:16.270Z,6.90
2018-07-12T08:25:44.380Z,5.20
2018-07-12T08:28:19.905Z,5.60
2018-07-12T08:30:47.999Z,4.80
2018-07-12T08:33:16.164Z,5.60
2018-07-12T08:35:44.473Z,4.80
2018-07-12T08:38:12.709Z,4.87
2018-07-12T08:40:40.825Z,5.58
2018-07-12T08:43:09.353Z,5.33
2018-07-12T08:45:37.437Z,4.70
2018-07-12T08:48:05.916Z,5.90
2018-07-12T08:50:34.197Z,5.47
2018-07-12T08:53:02.583Z,5.35
2018-07-12T08:55:30.752Z,5.62
2018-07-12T08:57:58.823Z,5.90
2018-07-12T09:00:27.017Z,6.10
2018-07-12T09:02:55.153Z,7.08
2018-07-12T09:05:23.197Z,6.40
2018-07-12T09:07:51.460Z,7.75
2018-07-12T09:10:19.579Z,6.50
2018-07-12T09:12:47.881Z,7.42
2018-07-12T09:15:16.065Z,7.15
2018-07-12T09:17:44.265Z,7.10
2018-07-12T09:20:12.220Z,8.05
2018-07-12T09:22:40.578Z,7.15
2018-07-12T09:25:08.485Z,8.45
2018-07-12T09:27:36.686Z,8.48
2018-07-12T09:30:04.603Z,8.73
2018-07-12T09:32:32.553Z,9.33
2018-07-12T09:35:00.615Z,9.40
2018-07-12T09:37:28.925Z,9.68
2018-07-12T09:39:57.297Z,9.75
2018-07-12T09:42:25.325Z,9.65
2018-07-12T09:44:53.114Z,9.20
2018-07-12T09:47:21.302Z,9.00
2018-07-12T09:49:49.337Z,8.50
2018-07-12T09:52:22.881Z,8.55
2018-07-12T09:54:50.952Z,8.90
2018-07-12T09:57:30.296Z,8.70
2018-07-12T09:59:58.406Z,8.40
2018-07-12T10:02:31.880Z,8.28
2018-07-12T10:04:59.976Z,8.20
2018-07-12T10:07:33.437Z,9.08
2018-07-12T10:10:01.639Z,8.40
2018-07-12T10:12:36.974Z,7.97
2018-07-12T10:15:09.708Z,8.63
2018-07-12T10:17:48.063Z,8.45
2018-07-12T10:20:16.138Z,7.58
2018-07-12T10:22:44.314Z,6.90
2018-07-12T10:25:12.252Z,6.37
2018-07-12T10:27:40.131Z,8.08
2018-07-12T10:30:08.070Z,8.90
2018-07-12T10:32:35.996Z,8.38
2018-07-12T10:35:03.998Z,8.20
2018-07-12T10:37:31.766Z,8.70
2018-07-12T10:39:59.922Z,8.38
2018-07-12T10:42:28.081Z,8.63
2018-07-12T10:44:56.118Z,9.20
2018-07-12T10:47:23.905Z,8.60
2018-07-12T10:49:51.972Z,7.62
2018-07-12T10:52:20.064Z,7.12
2018-07-12T10:54:48.127Z,7.80
2018-07-12T10:57:16.291Z,7.40
2018-07-12T10:59:44.490Z,7.90
2018-07-12T11:02:12.628Z,7.80
2018-07-12T11:04:40.637Z,6.40
2018-07-12T11:07:08.678Z,7.10
2018-07-12T11:09:36.659Z,7.30
2018-07-12T11:12:04.652Z,6.85
2018-07-12T11:14:32.553Z,8.25
2018-07-12T11:17:00.505Z,6.72
2018-07-12T11:19:28.500Z,5.50
2018-07-12T11:21:56.420Z,7.17
2018-07-12T11:24:24.315Z,6.62
2018-07-12T11:26:52.273Z,6.92
2018-07-12T11:29:30.156Z,6.67
2018-07-12T11:31:58.143Z,7.03
2018-07-12T11:34:26.069Z,7.65
2018-07-12T11:36:53.786Z,5.37
2018-07-12T11:39:21.737Z,6.40
2018-07-12T11:41:49.694Z,7.83
2018-07-12T11:44:17.631Z,6.37
2018-07-12T11:46:45.533Z,6.30
2018-07-12T11:49:13.504Z,6.60
2018-07-12T11:51:41.395Z,7.37
2018-07-12T11:54:09.333Z,6.00
2018-07-12T11:56:37.277Z,6.20
2018-07-12T11:59:05.484Z,6.10
2018-07-12T12:01:33.444Z,5.30
2018-07-12T12:04:01.174Z,6.30
2018-07-12T12:06:29.119Z,6.75
2018-07-12T12:08:57.055Z,5.80
2018-07-12T12:11:24.984Z,6.15
2018-07-12T12:13:53.081Z,5.50
2018-07-12T12:16:21.005Z,6.40
2018-07-12T12:18:48.905Z,5.30
2018-07-12T12:21:16.867Z,6.80
2018-07-12T12:23:44.813Z,7.13
2018-07-12T12:26:12.773Z,6.40
2018-07-12T12:28:40.712Z,6.67
2018-07-12T12:31:08.434Z,6.60
2018-07-12T12:33:36.429Z,6.30
2018-07-12T12:36:04.304Z,6.22
2018-07-12T12:38:32.224Z,5.60
2018-07-12T12:41:00.107Z,5.20
2018-07-12T12:43:28.033Z,5.62
2018-07-12T12:45:55.984Z,5.60
2018-07-12T12:48:23.715Z,4.60
2018-07-12T12:50:51.717Z,5.20
2018-07-12T12:53:19.654Z,5.25
2018-07-12T12:55:47.578Z,5.22
2018-07-12T12:58:16.345Z,4.90
2018-07-12T13:00:44.321Z,5.40
2018-07-12T13:03:12.254Z,4.90
2018-07-12T13:05:40.177Z,4.85
2018-07-12T13:08:08.216Z,3.90
2018-07-12T13:10:35.916Z,4.90
2018-07-12T13:13:03.848Z,4.15
2018-07-12T13:15:31.785Z,3.83
2018-07-12T13:17:59.824Z,4.42
2018-07-12T13:20:27.599Z,3.98
2018-07-12T13:22:55.532Z,4.00
2018-07-12T13:25:23.572Z,3.70
2018-07-12T13:27:51.331Z,4.00
2018-07-12T13:30:19.545Z,3.80
2018-07-12T13:32:47.463Z,4.58
2018-07-12T13:35:15.443Z,4.35
2018-07-12T13:37:43.386Z,3.90
2018-07-12T13:40:11.305Z,4.40
2018-07-12T13:42:39.224Z,3.52
2018-07-12T13:45:07.180Z,4.20
2018-07-12T13:47:34.930Z,5.60
2018-07-12T13:50:02.946Z,4.60
2018-07-12T13:52:30.925Z,4.42
2018-07-12T13:54:58.881Z,4.50
2018-07-12T13:57:26.893Z,5.40
2018-07-12T13:59:54.842Z,4.35
2018-07-12T14:02:22.751Z,4.90
2018-07-12T14:04:50.760Z,4.50
2018-07-12T14:07:18.624Z,4.65
2018-07-12T14:09:46.597Z,4.70
2018-07-12T14:12:14.483Z,4.80
2018-07-12T14:14:42.421Z,4.37
2018-07-12T14:17:10.174Z,5.90
2018-07-12T14:19:38.117Z,4.40
2018-07-12T14:22:06.062Z,4.42
2018-07-12T14:24:34.045Z,4.10
2018-07-12T14:27:02.051Z,3.75
2018-07-12T14:29:29.969Z,4.07
2018-07-12T14:31:57.894Z,4.25
2018-07-12T14:34:25.868Z,3.50
2018-07-12T14:36:53.757Z,2.95
2018-07-12T14:39:21.510Z,3.00
2018-07-12T14:41:49.473Z,3.65
2018-07-12T14:44:17.382Z,3.95
2018-07-12T14:46:45.297Z,4.25
2018-07-12T14:49:13.232Z,4.70
2018-07-12T14:51:41.201Z,7.03
2018-07-12T14:54:09.101Z,3.40
2018-07-12T14:56:37.071Z,3.00
2018-07-12T14:59:05.010Z,2.87
2018-07-12T15:01:32.941Z,3.72
2018-07-12T15:04:00.680Z,3.00
2018-07-12T15:06:28.680Z,2.55
2018-07-12T15:08:56.521Z,3.20
2018-07-12T15:11:24.515Z,3.30
2018-07-12T15:13:52.263Z,3.15
2018-07-12T15:16:20.209Z,2.62
2018-07-12T15:18:48.121Z,2.72
2018-07-12T15:21:16.090Z,2.77
2018-07-12T15:23:44.010Z,2.80
2018-07-12T15:26:12.010Z,3.10
2018-07-12T15:28:40.082Z,3.00
2018-07-12T15:31:08.083Z,2.72
2018-07-12T15:33:36.104Z,3.00
2018-07-12T15:36:04.061Z,2.77
2018-07-12T15:38:31.960Z,2.85
2018-07-12T15:40:59.907Z,2.70
2018-07-12T15:43:27.874Z,2.85
2018-07-12T15:45:55.779Z,2.92
2018-07-12T15:48:23.885Z,3.30
2018-07-12T15:50:51.830Z,3.10
2018-07-12T15:53:19.761Z,2.70
2018-07-12T15:55:47.647Z,2.60
2018-07-12T15:58:15.584Z,3.10
2018-07-12T16:00:43.512Z,2.87
2018-07-12T16:03:11.482Z,2.80
2018-07-12T16:05:39.422Z,3.02
2018-07-12T16:08:07.350Z,2.60
2018-07-12T16:10:35.162Z,3.00
2018-07-12T16:13:03.130Z,2.90
2018-07-12T16:15:31.051Z,2.40
2018-07-12T16:17:58.813Z,2.80
2018-07-12T16:20:26.565Z,2.58
2018-07-12T16:22:54.482Z,2.33
2018-07-12T16:25:22.413Z,3.20
2018-07-12T16:27:50.232Z,2.80
2018-07-12T16:30:18.255Z,2.90
2018-07-12T16:32:46.026Z,2.67
2018-07-12T16:35:13.780Z,3.20
2018-07-12T16:37:41.705Z,3.20
2018-07-12T16:40:09.615Z,3.10
2018-07-12T16:42:37.532Z,2.70
2018-07-12T16:45:06.003Z,2.80
2018-07-12T16:47:33.968Z,2.80
2018-07-12T16:50:01.985Z,2.90
2018-07-12T16:52:29.929Z,3.30
2018-07-12T16:54:57.825Z,2.70
2018-07-12T16:57:25.736Z,2.60
2018-07-12T16:59:53.590Z,3.50
2018-07-12T17:02:21.554Z,3.15
2018-07-12T17:04:49.513Z,2.50
2018-07-12T17:07:17.471Z,3.40
2018-07-12T17:09:45.397Z,2.60
2018-07-12T17:12:18.048Z,2.60
2018-07-12T17:14:48.941Z,3.30
2018-07-12T17:17:16.912Z,2.80
2018-07-12T17:19:45.150Z,3.10
2018-07-12T17:22:13.165Z,3.37
2018-07-12T17:24:41.224Z,3.77
2018-07-12T17:27:09.225Z,3.33
2018-07-12T17:29:37.216Z,3.40
2018-07-12T17:32:05.593Z,3.10
2018-07-12T17:34:33.847Z,3.30
2018-07-12T17:37:01.994Z,3.10
2018-07-12T17:39:30.642Z,2.90
2018-07-12T17:41:58.880Z,2.80
2018-07-12T17:44:28.055Z,2.80
2018-07-12T17:46:56.346Z,2.60
2018-07-12T17:49:24.632Z,2.47
2018-07-12T17:51:53.189Z,2.40
2018-07-12T17:54:21.640Z,2.62
2018-07-12T17:56:49.952Z,2.33
2018-07-12T17:59:18.197Z,2.12
2018-07-12T18:01:46.235Z,2.30
2018-07-12T18:04:14.259Z,2.60
2018-07-12T18:06:42.189Z,2.70
2018-07-12T18:09:10.189Z,2.30
2018-07-12T18:11:38.004Z,2.30
2018-07-12T18:14:06.010Z,2.60
2018-07-12T18:16:33.925Z,2.93
2018-07-12T18:19:01.885Z,2.22
2018-07-12T18:21:30.536Z,2.45
2018-07-12T18:23:58.473Z,2.50
2018-07-12T18:26:26.409Z,2.37
2018-07-12T18:28:54.410Z,2.40
2018-07-12T18:31:22.457Z,2.50
2018-07-12T18:33:50.695Z,2.70
2018-07-12T18:36:18.811Z,2.40
2018-07-12T18:38:47.057Z,2.80
2018-07-12T18:41:15.258Z,3.30
2018-07-12T18:43:43.364Z,2.70
2018-07-12T18:46:11.542Z,3.00
2018-07-12T18:48:43.688Z,3.10
2018-07-12T18:51:15.851Z,2.40
2018-07-12T18:53:49.512Z,2.50
2018-07-12T18:56:23.060Z,2.20
2018-07-12T18:58:55.384Z,2.50
2018-07-12T19:01:28.129Z,2.50
2018-07-12T19:04:00.053Z,2.33
2018-07-12T19:06:32.116Z,2.95
2018-07-12T19:09:04.898Z,3.33
2018-07-12T19:11:37.234Z,3.40
2018-07-12T19:14:10.547Z,3.10
2018-07-12T19:16:43.295Z,3.45
2018-07-12T19:19:15.717Z,3.00
2018-07-12T19:21:51.394Z,4.00
2018-07-12T19:24:25.106Z,6.97
2018-07-12T19:26:58.083Z,4.03
2018-07-12T19:29:30.314Z,6.03
2018-07-12T19:32:02.322Z,10.67
2018-07-12T19:34:35.707Z,5.67
2018-07-12T19:37:07.950Z,10.30
2018-07-12T19:39:40.886Z,7.50
2018-07-12T19:42:19.007Z,9.80
2018-07-12T19:44:52.801Z,9.05
2018-07-12T19:47:24.631Z,10.60
2018-07-12T19:50:03.484Z,9.58
2018-07-12T19:52:39.783Z,10.80
2018-07-12T19:55:18.244Z,10.05
2018-07-12T19:57:53.960Z,10.40
2018-07-12T20:00:31.449Z,5.70
2018-07-12T20:03:08.771Z,4.37
2018-07-12T20:05:39.687Z,6.70
2018-07-12T20:08:10.913Z,9.08
2018-07-12T20:10:43.524Z,8.93
2018-07-12T20:13:15.162Z,13.32
2018-07-12T20:15:47.070Z,12.05
2018-07-12T20:18:19.819Z,10.05
2018-07-12T20:20:51.069Z,10.05
2018-07-12T20:23:22.449Z,7.70
2018-07-12T20:25:55.279Z,5.75
2018-07-12T20:28:26.809Z,6.53
2018-07-12T20:30:57.442Z,5.53
2018-07-12T20:33:28.149Z,7.45
2018-07-12T20:35:59.574Z,8.03
2018-07-12T20:38:31.788Z,8.15
2018-07-12T20:41:02.748Z,8.40
2018-07-12T20:43:35.523Z,7.15
2018-07-12T20:46:05.840Z,5.65
2018-07-12T20:48:36.411Z,5.70
2018-07-12T20:51:08.597Z,9.43
2018-07-12T20:53:41.656Z,5.20
2018-07-12T20:56:14.508Z,5.25
2018-07-12T20:58:45.518Z,5.20
2018-07-12T21:01:17.438Z,4.90
2018-07-12T21:03:48.727Z,8.48
2018-07-12T21:06:20.252Z,4.80
2018-07-12T21:08:52.498Z,6.90
2018-07-12T21:11:28.868Z,5.22
2018-07-12T21:13:59.931Z,5.75
2018-07-12T21:16:30.545Z,5.40
2018-07-12T21:19:01.311Z,5.40
2018-07-12T21:21:32.883Z,5.07
2018-07-12T21:24:04.787Z,8.93
2018-07-12T21:26:35.883Z,5.20
2018-07-12T21:29:08.241Z,5.62
2018-07-12T21:31:51.658Z,4.95
2018-07-12T21:34:24.258Z,5.10
2018-07-12T21:36:56.514Z,5.40
2018-07-12T21:39:28.735Z,5.90
2018-07-12T21:41:59.869Z,5.75
2018-07-12T21:44:39.373Z,5.12
2018-07-12T21:47:18.129Z,6.87
2018-07-12T21:49:56.713Z,5.72
2018-07-12T21:52:39.025Z,5.70
2018-07-12T21:55:19.783Z,6.95
2018-07-12T21:57:59.938Z,7.15
2018-07-12T22:00:37.603Z,5.43
2018-07-12T22:03:08.758Z,5.27
2018-07-12T22:05:40.182Z,5.58
2018-07-12T22:08:14.267Z,6.00
2018-07-12T22:10:46.104Z,6.50
2018-07-12T22:13:17.118Z,6.55
2018-07-12T22:15:48.525Z,6.62
2018-07-12T22:18:21.630Z,6.80
2018-07-12T22:20:53.272Z,9.30
2018-07-12T22:23:26.369Z,8.50
2018-07-12T22:25:58.324Z,8.13
2018-07-12T22:28:29.845Z,10.90
2018-07-12T22:31:00.869Z,7.27
2018-07-12T22:33:32.561Z,5.47
2018-07-12T22:36:04.011Z,6.10
2018-07-12T22:38:35.623Z,6.30
2018-07-12T22:41:06.975Z,5.80
2018-07-12T22:43:38.300Z,7.50
2018-07-12T22:46:16.977Z,5.85
2018-07-12T22:48:48.361Z,6.40
2018-07-12T22:51:19.806Z,6.28
2018-07-12T22:53:51.831Z,7.13
2018-07-12T22:56:23.869Z,6.53
2018-07-12T22:58:55.726Z,7.00
2018-07-12T23:01:27.668Z,6.80
2018-07-12T23:03:59.630Z,5.75
2018-07-12T23:06:31.864Z,7.12
2018-07-12T23:09:03.729Z,8.20
2018-07-12T23:11:35.815Z,6.35
2018-07-12T23:14:08.246Z,6.08
2018-07-12T23:16:40.666Z,6.90
2018-07-12T23:19:12.550Z,6.87
2018-07-12T23:21:44.428Z,8.90
2018-07-12T23:24:16.673Z,7.42
2018-07-12T23:26:48.416Z,7.35
2018-07-12T23:29:19.022Z,6.70
2018-07-12T23:31:51.076Z,6.83
2018-07-12T23:34:22.761Z,7.72
2018-07-12T23:36:53.472Z,6.53
2018-07-12T23:39:25.063Z,8.90
2018-07-12T23:41:56.664Z,7.70
2018-07-12T23:44:28.699Z,6.60
2018-07-12T23:47:02.833Z,7.00
2018-07-12T23:49:35.615Z,6.60
2018-07-12T23:52:07.960Z,7.55
2018-07-12T23:54:39.157Z,7.40
2018-07-12T23:57:11.477Z,7.90
2018-07-12T23:59:43.582Z,7.37
